createdAt,value
2017-07-30T00:02:05.102Z,25.00
2017-07-30T00:04:32.747Z,25.00
2017-07-30T00:07:00.257Z,24.90
2017-07-30T00:09:27.779Z,25.00
2017-07-30T00:11:55.325Z,25.00
2017-07-30T00:14:22.937Z,25.00
2017-07-30T00:16:51.253Z,25.00
2017-07-30T00:19:18.763Z,24.90
2017-07-30T00:21:46.277Z,25.00
2017-07-30T00:24:13.817Z,25.00
2017-07-30T00:26:41.334Z,25.00
2017-07-30T00:29:08.900Z,25.00
2017-07-30T00:31:36.558Z,25.00
2017-07-30T00:34:04.095Z,25.00
2017-07-30T00:36:31.617Z,25.00
2017-07-30T00:38:59.159Z,25.00
2017-07-30T00:41:26.777Z,25.00
2017-07-30T00:43:54.458Z,25.00
2017-07-30T00:46:21.975Z,25.00
2017-07-30T00:48:49.485Z,25.00
2017-07-30T00:51:17.852Z,25.00
2017-07-30T00:53:45.360Z,24.90
2017-07-30T00:56:12.869Z,25.00
2017-07-30T00:58:40.393Z,25.00
2017-07-30T01:01:07.886Z,25.00
2017-07-30T01:03:35.498Z,25.00
2017-07-30T01:06:03.001Z,25.00
2017-07-30T01:08:30.512Z,25.00
2017-07-30T01:10:58.038Z,25.00
2017-07-30T01:13:26.353Z,25.00
2017-07-30T01:15:53.877Z,25.00
2017-07-30T01:18:21.403Z,25.00
2017-07-30T01:20:48.913Z,25.00
2017-07-30T01:23:16.424Z,25.00
2017-07-30T01:25:43.932Z,25.00
2017-07-30T01:28:11.465Z,25.00
2017-07-30T01:30:39.764Z,25.00
2017-07-30T01:33:07.385Z,25.00
2017-07-30T01:35:35.216Z,25.00
2017-07-30T01:38:02.755Z,25.00
2017-07-30T01:40:30.357Z,25.00
2017-07-30T01:42:57.889Z,25.00
2017-07-30T01:45:25.469Z,25.00
2017-07-30T01:47:53.000Z,25.00
2017-07-30T01:50:20.515Z,25.00
2017-07-30T01:52:49.006Z,25.00
2017-07-30T01:55:16.505Z,25.00
2017-07-30T01:57:44.242Z,25.00
2017-07-30T02:00:11.781Z,25.00
2017-07-30T02:02:40.065Z,25.00
2017-07-30T02:05:07.576Z,25.00
2017-07-30T02:07:35.113Z,25.00
2017-07-30T02:10:02.618Z,25.00
2017-07-30T02:12:30.894Z,25.00
2017-07-30T02:14:59.188Z,25.00
2017-07-30T02:17:26.694Z,25.00
2017-07-30T02:19:54.213Z,25.00
2017-07-30T02:22:21.755Z,25.00
2017-07-30T02:24:50.034Z,25.00
2017-07-30T02:27:18.309Z,25.00
2017-07-30T02:29:45.825Z,24.90
2017-07-30T02:32:13.358Z,25.00
2017-07-30T02:34:40.912Z,25.00
2017-07-30T02:37:08.407Z,25.00
2017-07-30T02:39:35.929Z,25.00
2017-07-30T02:42:03.442Z,25.00
2017-07-30T02:44:31.730Z,25.00
2017-07-30T02:46:59.992Z,25.00
2017-07-30T02:49:28.274Z,25.00
2017-07-30T02:51:56.569Z,25.00
2017-07-30T02:54:24.074Z,25.00
2017-07-30T02:56:51.590Z,25.00
2017-07-30T02:59:19.107Z,25.00
2017-07-30T03:01:46.601Z,24.90
2017-07-30T03:04:14.122Z,25.00
2017-07-30T03:06:41.621Z,25.00
2017-07-30T03:09:09.153Z,25.00
2017-07-30T03:11:37.429Z,25.00
2017-07-30T03:14:04.922Z,24.90
2017-07-30T03:16:32.429Z,25.00
2017-07-30T03:18:59.937Z,25.00
2017-07-30T03:21:27.458Z,25.00
2017-07-30T03:23:55.781Z,25.00
2017-07-30T03:26:23.289Z,24.90
2017-07-30T03:28:51.559Z,25.00
2017-07-30T03:31:20.614Z,25.00
2017-07-30T03:33:48.141Z,25.00
2017-07-30T03:36:15.672Z,25.00
2017-07-30T03:38:43.173Z,25.00
2017-07-30T03:41:10.674Z,25.00
2017-07-30T03:43:38.225Z,25.00
2017-07-30T03:46:05.855Z,25.00
2017-07-30T03:48:33.495Z,25.00
2017-07-30T03:51:01.062Z,25.00
2017-07-30T03:53:28.601Z,25.00
2017-07-30T03:55:56.885Z,25.00
2017-07-30T03:58:25.144Z,25.00
2017-07-30T04:00:53.441Z,25.00
2017-07-30T04:03:21.706Z,25.00
2017-07-30T04:05:50.123Z,25.00
2017-07-30T04:08:17.625Z,24.90
2017-07-30T04:10:45.134Z,25.00
2017-07-30T04:13:12.656Z,25.00
2017-07-30T04:15:41.054Z,25.00
2017-07-30T04:18:08.590Z,24.90
2017-07-30T04:20:36.851Z,25.00
2017-07-30T04:23:04.345Z,24.90
2017-07-30T04:25:31.861Z,25.00
2017-07-30T04:27:59.377Z,25.00
2017-07-30T04:30:26.891Z,25.00
2017-07-30T04:32:55.259Z,25.00
2017-07-30T04:35:22.773Z,25.00
2017-07-30T04:37:50.327Z,25.00
2017-07-30T04:40:17.829Z,25.00
2017-07-30T04:42:45.334Z,25.00
2017-07-30T04:45:12.875Z,25.00
2017-07-30T04:47:41.133Z,25.00
2017-07-30T04:50:09.398Z,25.00
2017-07-30T04:52:36.921Z,25.00
2017-07-30T04:55:04.431Z,25.00
2017-07-30T04:57:32.832Z,25.00
2017-07-30T05:00:00.369Z,25.00
2017-07-30T05:02:28.625Z,25.00
2017-07-30T05:04:56.130Z,25.00
2017-07-30T05:07:23.631Z,25.00
2017-07-30T05:09:51.159Z,25.00
2017-07-30T05:12:18.644Z,25.00
2017-07-30T05:14:46.173Z,25.00
2017-07-30T05:17:13.730Z,25.00
2017-07-30T05:19:41.299Z,25.00
2017-07-30T05:22:08.816Z,25.00
2017-07-30T05:24:37.092Z,25.00
2017-07-30T05:27:05.399Z,25.00
2017-07-30T05:29:32.909Z,25.00
2017-07-30T05:32:00.409Z,25.00
2017-07-30T05:34:27.913Z,25.00
2017-07-30T05:36:55.421Z,25.00
2017-07-30T05:39:22.951Z,25.00
2017-07-30T05:41:51.297Z,25.00
2017-07-30T05:44:18.819Z,25.00
2017-07-30T05:46:46.335Z,25.00
2017-07-30T05:49:13.849Z,25.10
2017-07-30T05:51:41.430Z,25.00
2017-07-30T05:54:08.931Z,25.10
2017-07-30T05:56:37.225Z,25.00
2017-07-30T05:59:04.729Z,25.00
2017-07-30T06:01:32.274Z,25.10
2017-07-30T06:03:59.791Z,25.10
2017-07-30T06:06:27.290Z,25.10
2017-07-30T06:08:54.822Z,25.10
2017-07-30T06:11:22.374Z,25.10
2017-07-30T06:13:49.990Z,25.10
2017-07-30T06:16:17.670Z,25.10
2017-07-30T06:18:45.949Z,25.10
2017-07-30T06:21:14.243Z,25.10
2017-07-30T06:23:41.767Z,25.10
2017-07-30T06:26:09.286Z,25.20
2017-07-30T06:28:36.786Z,25.20
2017-07-30T06:31:04.326Z,25.20
2017-07-30T06:33:31.821Z,25.20
2017-07-30T06:35:59.370Z,25.20
2017-07-30T06:38:27.631Z,25.20
2017-07-30T06:40:55.183Z,25.20
2017-07-30T06:43:22.690Z,25.20
2017-07-30T06:45:50.242Z,25.30
2017-07-30T06:48:17.854Z,25.30
2017-07-30T06:50:45.363Z,25.30
2017-07-30T06:53:12.883Z,25.30
2017-07-30T06:55:40.415Z,25.30
2017-07-30T06:58:07.910Z,25.30
2017-07-30T07:00:36.241Z,25.30
2017-07-30T07:03:03.754Z,25.30
2017-07-30T07:05:32.034Z,25.30
2017-07-30T07:08:00.302Z,25.40
2017-07-30T07:10:28.567Z,25.40
2017-07-30T07:12:56.894Z,25.30
2017-07-30T07:15:24.381Z,25.30
2017-07-30T07:17:51.905Z,25.40
2017-07-30T07:20:19.518Z,25.40
2017-07-30T07:22:47.027Z,25.40
2017-07-30T07:25:16.067Z,25.40
2017-07-30T07:27:43.613Z,25.40
2017-07-30T07:30:12.080Z,25.40
2017-07-30T07:32:40.457Z,25.40
2017-07-30T07:35:07.995Z,25.40
2017-07-30T07:37:35.651Z,25.40
2017-07-30T07:40:03.917Z,25.50
2017-07-30T07:42:31.458Z,25.50
2017-07-30T07:44:59.050Z,25.50
2017-07-30T07:47:27.365Z,25.50
2017-07-30T07:49:54.894Z,25.50
2017-07-30T07:52:22.447Z,25.50
2017-07-30T07:54:50.035Z,25.50
2017-07-30T07:57:18.340Z,25.50
2017-07-30T07:59:46.601Z,25.50
2017-07-30T08:02:14.864Z,25.50
2017-07-30T08:04:43.179Z,25.60
2017-07-30T08:07:10.694Z,25.50
2017-07-30T08:09:38.190Z,25.50
2017-07-30T08:12:05.720Z,25.60
2017-07-30T08:14:33.241Z,25.60
2017-07-30T08:17:01.547Z,25.60
2017-07-30T08:19:29.053Z,25.60
2017-07-30T08:21:57.367Z,25.60
2017-07-30T08:24:24.908Z,25.60
2017-07-30T08:26:53.186Z,25.60
2017-07-30T08:29:20.684Z,25.60
2017-07-30T08:31:48.239Z,25.60
2017-07-30T08:34:15.781Z,25.60
2017-07-30T08:36:43.323Z,25.60
2017-07-30T08:39:10.829Z,25.60
2017-07-30T08:41:38.336Z,25.60
2017-07-30T08:44:05.873Z,25.60
2017-07-30T08:46:33.363Z,25.60
2017-07-30T08:49:01.059Z,25.60
2017-07-30T08:51:28.640Z,25.60
2017-07-30T08:53:56.167Z,25.70
2017-07-30T08:56:24.421Z,25.70
2017-07-30T08:58:51.963Z,25.60
2017-07-30T09:01:19.491Z,25.70
2017-07-30T09:03:47.018Z,25.70
2017-07-30T09:06:14.555Z,25.70
2017-07-30T09:08:42.086Z,25.70
2017-07-30T09:11:09.624Z,25.70
2017-07-30T09:13:37.135Z,25.70
2017-07-30T09:16:05.422Z,25.70
2017-07-30T09:18:33.731Z,25.80
2017-07-30T09:21:01.266Z,25.70
2017-07-30T09:23:28.781Z,25.80
2017-07-30T09:25:56.392Z,25.80
2017-07-30T09:28:23.890Z,25.80
2017-07-30T09:30:51.400Z,25.80
2017-07-30T09:33:18.914Z,25.80
2017-07-30T09:35:46.420Z,25.80
2017-07-30T09:38:13.978Z,25.80
2017-07-30T09:40:41.493Z,25.80
2017-07-30T09:43:09.114Z,25.80
2017-07-30T09:45:37.417Z,25.80
2017-07-30T09:48:05.878Z,25.80
2017-07-30T09:50:34.174Z,25.70
2017-07-30T09:53:01.694Z,25.70
2017-07-30T09:55:29.986Z,25.70
2017-07-30T09:57:58.254Z,25.70
2017-07-30T10:00:26.563Z,25.70
2017-07-30T10:02:54.048Z,25.70
2017-07-30T10:05:22.777Z,25.70
2017-07-30T10:07:51.194Z,25.70
2017-07-30T10:10:18.684Z,25.70
2017-07-30T10:12:46.241Z,25.70
2017-07-30T10:15:13.746Z,25.70
2017-07-30T10:17:41.258Z,25.70
2017-07-30T10:20:08.797Z,25.70
2017-07-30T10:22:36.314Z,25.70
2017-07-30T10:25:03.841Z,25.70
2017-07-30T10:27:31.344Z,25.70
2017-07-30T10:29:59.014Z,25.70
2017-07-30T10:32:26.515Z,25.70
2017-07-30T10:34:55.006Z,25.70
2017-07-30T10:37:23.348Z,25.70
2017-07-30T10:39:50.945Z,25.70
2017-07-30T10:42:18.447Z,25.70
2017-07-30T10:44:46.746Z,25.70
2017-07-30T10:47:14.262Z,25.70
2017-07-30T10:49:41.794Z,25.80
2017-07-30T10:52:09.347Z,25.80
2017-07-30T10:54:36.934Z,25.70
2017-07-30T10:57:05.203Z,25.70
2017-07-30T10:59:32.755Z,25.70
2017-07-30T11:02:00.286Z,25.80
2017-07-30T11:04:27.781Z,25.80
2017-07-30T11:06:55.328Z,25.70
2017-07-30T11:09:22.847Z,25.80
2017-07-30T11:11:51.110Z,25.80
2017-07-30T11:14:18.669Z,25.80
2017-07-30T11:16:46.190Z,25.80
2017-07-30T11:19:13.739Z,25.80
2017-07-30T11:21:41.396Z,25.80
2017-07-30T11:24:08.918Z,25.80
2017-07-30T11:26:36.408Z,25.80
2017-07-30T11:29:04.719Z,25.80
2017-07-30T11:31:32.222Z,25.80
2017-07-30T11:33:59.744Z,25.80
2017-07-30T11:36:27.249Z,25.80
2017-07-30T11:38:55.549Z,25.90
2017-07-30T11:41:23.054Z,25.80
2017-07-30T11:43:50.621Z,25.80
2017-07-30T11:46:18.455Z,25.80
2017-07-30T11:48:45.947Z,25.80
2017-07-30T11:51:13.466Z,25.90
2017-07-30T11:53:41.031Z,25.90
2017-07-30T11:56:08.666Z,25.80
2017-07-30T11:58:36.237Z,25.80
2017-07-30T12:01:03.943Z,25.80
2017-07-30T12:03:31.472Z,25.80
2017-07-30T12:05:59.027Z,25.80
2017-07-30T12:08:26.564Z,25.90
2017-07-30T12:10:54.116Z,25.80
2017-07-30T12:13:21.810Z,25.80
2017-07-30T12:15:49.330Z,25.80
2017-07-30T12:18:17.609Z,25.90
2017-07-30T12:20:45.910Z,25.80
2017-07-30T12:23:13.462Z,25.80
2017-07-30T12:25:41.130Z,25.80
2017-07-30T12:28:08.686Z,25.80
2017-07-30T12:30:36.202Z,25.80
2017-07-30T12:33:03.715Z,25.90
2017-07-30T12:35:31.232Z,25.90
2017-07-30T12:37:59.508Z,25.90
2017-07-30T12:40:27.815Z,25.90
2017-07-30T12:42:55.326Z,25.90
2017-07-30T12:45:23.638Z,25.90
2017-07-30T12:47:51.162Z,25.90
2017-07-30T12:50:19.469Z,25.90
2017-07-30T12:52:47.006Z,25.80
2017-07-30T12:55:15.391Z,25.90
2017-07-30T12:57:43.673Z,25.90
2017-07-30T13:00:11.206Z,25.90
2017-07-30T13:02:39.621Z,25.90
2017-07-30T13:05:07.134Z,25.90
2017-07-30T13:07:34.658Z,25.90
2017-07-30T13:10:02.196Z,25.90
2017-07-30T13:12:29.871Z,25.80
2017-07-30T13:14:57.392Z,25.80
2017-07-30T13:17:24.910Z,25.90
2017-07-30T13:19:52.425Z,25.90
2017-07-30T13:22:20.723Z,25.90
2017-07-30T13:24:48.211Z,25.90
2017-07-30T13:27:15.714Z,25.90
2017-07-30T13:29:43.278Z,25.90
2017-07-30T13:32:10.778Z,25.90
2017-07-30T13:34:38.314Z,25.90
2017-07-30T13:37:05.855Z,25.90
2017-07-30T13:39:33.370Z,25.90
2017-07-30T13:42:00.882Z,25.90
2017-07-30T13:44:28.381Z,25.90
2017-07-30T13:46:55.903Z,25.90
2017-07-30T13:49:23.449Z,25.90
2017-07-30T13:51:50.986Z,25.90
2017-07-30T13:54:19.238Z,25.90
2017-07-30T13:56:46.787Z,25.90
2017-07-30T13:59:14.299Z,25.80
2017-07-30T14:01:41.822Z,25.90
2017-07-30T14:04:09.337Z,25.80
2017-07-30T14:06:36.825Z,25.90
2017-07-30T14:09:04.369Z,25.80
2017-07-30T14:11:31.890Z,25.90
2017-07-30T14:13:59.537Z,25.80
2017-07-30T14:16:27.026Z,25.80
2017-07-30T14:18:54.552Z,25.90
2017-07-30T14:21:22.822Z,25.80
2017-07-30T14:23:51.104Z,25.90
2017-07-30T14:26:18.614Z,25.80
2017-07-30T14:28:46.120Z,25.80
2017-07-30T14:31:13.669Z,25.90
2017-07-30T14:33:41.950Z,25.80
2017-07-30T14:36:09.531Z,25.80
2017-07-30T14:38:37.060Z,25.90
2017-07-30T14:41:05.429Z,26.10
2017-07-30T14:43:33.035Z,26.10
2017-07-30T14:46:00.592Z,26.20
2017-07-30T14:48:28.074Z,26.30
2017-07-30T14:50:55.611Z,26.30
2017-07-30T14:53:23.141Z,26.40
2017-07-30T14:55:50.667Z,26.40
2017-07-30T14:58:18.211Z,26.40
2017-07-30T15:00:45.740Z,26.40
2017-07-30T15:03:13.264Z,26.40
2017-07-30T15:05:42.496Z,26.50
2017-07-30T15:08:10.022Z,26.50
2017-07-30T15:10:38.421Z,26.60
2017-07-30T15:13:05.952Z,26.50
2017-07-30T15:15:33.473Z,26.60
2017-07-30T15:18:01.012Z,26.60
2017-07-30T15:20:28.534Z,26.60
2017-07-30T15:22:56.035Z,26.70
2017-07-30T15:25:24.351Z,26.70
2017-07-30T15:27:51.877Z,26.70
2017-07-30T15:30:20.166Z,26.50
2017-07-30T15:32:47.671Z,26.50
2017-07-30T15:35:15.199Z,26.40
2017-07-30T15:37:42.720Z,26.30
2017-07-30T15:40:11.038Z,26.30
2017-07-30T15:42:38.555Z,26.30
2017-07-30T15:45:06.830Z,26.20
2017-07-30T15:47:34.412Z,26.20
2017-07-30T15:50:02.686Z,26.20
2017-07-30T15:52:30.210Z,26.20
2017-07-30T15:54:57.769Z,26.20
2017-07-30T15:57:25.369Z,26.20
2017-07-30T15:59:53.878Z,26.20
2017-07-30T16:02:21.444Z,26.20
2017-07-30T16:04:49.068Z,26.20
2017-07-30T16:07:16.602Z,26.20
2017-07-30T16:09:44.111Z,26.20
2017-07-30T16:12:11.637Z,26.20
2017-07-30T16:14:39.278Z,26.20
2017-07-30T16:17:06.835Z,26.20
2017-07-30T16:19:34.374Z,26.20
2017-07-30T16:22:01.935Z,26.20
2017-07-30T16:24:29.466Z,26.20
2017-07-30T16:26:56.981Z,26.20
2017-07-30T16:29:24.548Z,26.20
2017-07-30T16:31:52.377Z,26.10
2017-07-30T16:34:20.159Z,26.10
2017-07-30T16:36:47.987Z,26.10
2017-07-30T16:39:15.545Z,26.10
2017-07-30T16:41:43.086Z,26.10
2017-07-30T16:44:10.623Z,26.10
2017-07-30T16:46:38.178Z,26.10
2017-07-30T16:49:06.483Z,26.10
2017-07-30T16:51:34.007Z,26.10
2017-07-30T16:54:01.558Z,26.10
2017-07-30T16:56:29.198Z,26.10
2017-07-30T16:58:56.747Z,26.10
2017-07-30T17:01:24.267Z,26.10
2017-07-30T17:03:51.941Z,26.10
2017-07-30T17:06:19.627Z,26.10
2017-07-30T17:08:47.145Z,26.10
2017-07-30T17:11:15.515Z,26.10
2017-07-30T17:13:43.771Z,26.10
2017-07-30T17:16:11.302Z,26.00
2017-07-30T17:18:38.859Z,26.10
2017-07-30T17:21:06.370Z,26.00
2017-07-30T17:23:34.801Z,26.00
2017-07-30T17:26:02.354Z,26.00
2017-07-30T17:28:29.860Z,26.00
2017-07-30T17:30:58.170Z,26.00
2017-07-30T17:33:25.699Z,26.00
2017-07-30T17:35:54.018Z,26.00
2017-07-30T17:38:21.532Z,26.00
2017-07-30T17:40:49.832Z,26.00
2017-07-30T17:43:17.370Z,26.00
2017-07-30T17:45:45.595Z,26.00
2017-07-30T17:48:13.313Z,26.00
2017-07-30T17:50:41.584Z,26.00
2017-07-30T17:53:09.906Z,26.00
2017-07-30T17:55:37.421Z,26.00
2017-07-30T17:58:05.829Z,25.90
2017-07-30T18:00:33.506Z,25.90
2017-07-30T18:03:01.026Z,25.90
2017-07-30T18:05:29.326Z,25.90
2017-07-30T18:07:56.830Z,25.90
2017-07-30T18:10:24.349Z,26.00
2017-07-30T18:12:51.886Z,25.90
2017-07-30T18:15:19.399Z,25.90
2017-07-30T18:17:46.936Z,25.90
2017-07-30T18:20:14.474Z,25.90
2017-07-30T18:22:41.994Z,25.90
2017-07-30T18:25:10.310Z,25.90
2017-07-30T18:27:37.858Z,25.90
2017-07-30T18:30:05.534Z,25.90
2017-07-30T18:32:33.141Z,25.90
2017-07-30T18:35:00.689Z,25.90
2017-07-30T18:37:28.230Z,25.90
2017-07-30T18:39:55.741Z,25.90
2017-07-30T18:42:23.356Z,25.90
2017-07-30T18:44:50.901Z,25.90
2017-07-30T18:47:18.422Z,25.90
2017-07-30T18:49:45.958Z,25.90
2017-07-30T18:52:14.266Z,25.90
2017-07-30T18:54:41.815Z,25.90
2017-07-30T18:57:09.392Z,25.90
2017-07-30T18:59:36.917Z,25.90
2017-07-30T19:02:05.198Z,25.90
2017-07-30T19:04:33.686Z,26.00
2017-07-30T19:07:01.966Z,26.00
2017-07-30T19:09:29.554Z,26.00
2017-07-30T19:11:57.743Z,26.00
2017-07-30T19:14:25.278Z,26.00
2017-07-30T19:16:52.844Z,26.00
2017-07-30T19:19:20.383Z,26.00
2017-07-30T19:21:47.881Z,26.00
2017-07-30T19:24:15.417Z,26.10
2017-07-30T19:26:43.729Z,26.00
2017-07-30T19:29:11.335Z,26.00
2017-07-30T19:31:38.867Z,26.00
2017-07-30T19:34:06.408Z,26.10
2017-07-30T19:36:33.955Z,26.10
2017-07-30T19:39:02.264Z,26.00
2017-07-30T19:41:29.828Z,26.00
2017-07-30T19:43:57.384Z,26.10
2017-07-30T19:46:24.883Z,26.00
2017-07-30T19:48:52.446Z,26.00
2017-07-30T19:51:19.981Z,26.10
2017-07-30T19:53:47.535Z,26.00
2017-07-30T19:56:15.069Z,26.10
2017-07-30T19:58:42.708Z,26.10
2017-07-30T20:01:10.299Z,26.00
2017-07-30T20:03:37.823Z,26.10
2017-07-30T20:06:05.381Z,26.10
2017-07-30T20:08:32.936Z,26.10
2017-07-30T20:11:01.260Z,26.10
2017-07-30T20:13:28.802Z,26.00
2017-07-30T20:15:56.308Z,26.10
2017-07-30T20:18:24.612Z,26.00
2017-07-30T20:20:52.085Z,26.00
2017-07-30T20:23:20.443Z,26.10
2017-07-30T20:25:47.992Z,26.00
2017-07-30T20:28:15.582Z,26.10
2017-07-30T20:30:43.180Z,26.00
2017-07-30T20:33:10.872Z,26.10
2017-07-30T20:35:38.457Z,26.00
2017-07-30T20:38:06.012Z,26.00
2017-07-30T20:40:34.355Z,26.00
2017-07-30T20:43:01.920Z,26.00
2017-07-30T20:45:29.425Z,26.00
2017-07-30T20:47:56.960Z,26.00
2017-07-30T20:50:24.506Z,26.00
2017-07-30T20:52:52.016Z,26.00
2017-07-30T20:55:19.551Z,26.00
2017-07-30T20:57:47.184Z,26.00
2017-07-30T21:00:14.759Z,26.00
2017-07-30T21:02:42.300Z,26.00
2017-07-30T21:05:09.825Z,26.00
2017-07-30T21:07:38.137Z,26.00
2017-07-30T21:10:05.664Z,26.00
2017-07-30T21:12:33.954Z,26.00
2017-07-30T21:15:02.247Z,26.00
2017-07-30T21:17:29.766Z,26.00
2017-07-30T21:19:57.315Z,26.00
2017-07-30T21:22:24.817Z,26.00
2017-07-30T21:24:52.364Z,26.00
2017-07-30T21:27:19.874Z,26.00
2017-07-30T21:29:47.409Z,26.00
2017-07-30T21:32:14.969Z,26.00
2017-07-30T21:34:42.463Z,26.00
2017-07-30T21:37:10.111Z,26.00
2017-07-30T21:39:37.612Z,26.00
2017-07-30T21:42:05.841Z,26.00
2017-07-30T21:44:33.461Z,26.00
2017-07-30T21:47:00.993Z,26.00
2017-07-30T21:49:29.307Z,26.00
2017-07-30T21:51:56.801Z,25.90
2017-07-30T21:54:24.345Z,26.00
2017-07-30T21:56:51.852Z,25.90
2017-07-30T21:59:19.390Z,25.90
2017-07-30T22:01:47.689Z,26.00
2017-07-30T22:04:15.953Z,26.00
2017-07-30T22:06:44.250Z,26.00
2017-07-30T22:09:11.775Z,25.90
2017-07-30T22:11:40.048Z,26.00
2017-07-30T22:14:08.337Z,25.90
2017-07-30T22:16:36.646Z,25.90
2017-07-30T22:19:04.140Z,25.90
2017-07-30T22:21:31.654Z,25.90
2017-07-30T22:23:59.180Z,25.90
2017-07-30T22:26:27.451Z,25.90
2017-07-30T22:28:54.967Z,25.90
2017-07-30T22:31:22.493Z,25.90
2017-07-30T22:33:50.051Z,25.90
2017-07-30T22:36:18.316Z,25.90
2017-07-30T22:38:46.578Z,25.90
2017-07-30T22:41:14.898Z,25.90
2017-07-30T22:43:42.403Z,25.90
2017-07-30T22:46:09.927Z,25.90
2017-07-30T22:48:37.455Z,25.90
2017-07-30T22:51:04.977Z,25.90
2017-07-30T22:53:32.485Z,25.90
2017-07-30T22:56:00.000Z,25.90
2017-07-30T22:58:29.859Z,25.90
2017-07-30T23:00:57.378Z,25.90
2017-07-30T23:03:24.907Z,25.90
2017-07-30T23:05:52.448Z,25.90
2017-07-30T23:08:19.967Z,25.90
2017-07-30T23:10:47.499Z,25.90
2017-07-30T23:13:15.037Z,25.90
2017-07-30T23:15:42.542Z,25.90
2017-07-30T23:18:10.808Z,25.90
2017-07-30T23:20:39.090Z,25.90
2017-07-30T23:23:07.374Z,25.90
2017-07-30T23:25:34.901Z,25.90
2017-07-30T23:28:02.440Z,25.80
2017-07-30T23:30:29.957Z,25.90
2017-07-30T23:32:57.478Z,25.90
2017-07-30T23:35:25.037Z,25.90
2017-07-30T23:37:52.551Z,25.90
2017-07-30T23:40:20.049Z,25.90
2017-07-30T23:42:47.560Z,25.90
2017-07-30T23:45:15.245Z,25.90
2017-07-30T23:47:42.779Z,25.80
2017-07-30T23:50:10.282Z,25.80
2017-07-30T23:52:37.814Z,25.80
2017-07-30T23:55:05.366Z,25.80
2017-07-30T23:57:32.894Z,25.80
